sensor_id;sensor_type;location;lat;lon;timestamp;temperature;humidity
1379;DHT22;683;48.738;9.226;2023-08-08T00:01:38;10.50;99.90
1379;DHT22;683;48.738;9.226;2023-08-08T00:04:08;10.40;99.90
1379;DHT22;683;48.738;9.226;2023-08-08T00:06:36;10.40;99.90
1379;DHT22;683;48.738;9.226;2023-08-08T00:09:03;10.50;99.90
1379;DHT22;683;48.738;9.226;2023-08-08T00:11:32;10.50;99.90
1379;DHT22;683;48.738;9.226;2023-08-08T00:13:59;10.60;99.90
1379;DHT22;683;48.738;9.226;2023-08-08T00:16:26;10.70;99.90
1379;DHT22;683;48.738;9.226;2023-08-08T00:18:54;10.70;99.90
1379;DHT22;683;48.738;9.226;2023-08-08T00:21:21;10.80;99.90
1379;DHT22;683;48.738;9.226;2023-08-08T00:23:48;10.90;99.90
1379;DHT22;683;48.738;9.226;2023-08-08T00:26:15;11.00;99.90
1379;DHT22;683;48.738;9.226;2023-08-08T00:28:44;11.10;99.90
1379;DHT22;683;48.738;9.226;2023-08-08T00:31:11;11.10;99.90
1379;DHT22;683;48.738;9.226;2023-08-08T00:33:38;11.20;99.90
1379;DHT22;683;48.738;9.226;2023-08-08T00:36:05;11.20;99.90
1379;DHT22;683;48.738;9.226;2023-08-08T00:38:33;11.20;99.90
1379;DHT22;683;48.738;9.226;2023-08-08T00:41:00;11.20;99.90
1379;DHT22;683;48.738;9.226;2023-08-08T00:43:28;11.30;99.90
1379;DHT22;683;48.738;9.226;2023-08-08T00:45:57;11.30;99.90
1379;DHT22;683;48.738;9.226;2023-08-08T00:48:24;11.40;99.90
1379;DHT22;683;48.738;9.226;2023-08-08T00:50:53;11.40;99.90
1379;DHT22;683;48.738;9.226;2023-08-08T00:53:21;11.40;99.90
1379;DHT22;683;48.738;9.226;2023-08-08T00:55:49;11.40;99.90
1379;DHT22;683;48.738;9.226;2023-08-08T00:58:16;11.40;99.90
1379;DHT22;683;48.738;9.226;2023-08-08T01:00:44;11.40;99.90
1379;DHT22;683;48.738;9.226;2023-08-08T01:03:12;11.40;99.90
1379;DHT22;683;48.738;9.226;2023-08-08T01:05:45;11.40;99.90
1379;DHT22;683;48.738;9.226;2023-08-08T01:08:17;11.40;99.90
1379;DHT22;683;48.738;9.226;2023-08-08T01:10:46;11.40;99.90
1379;DHT22;683;48.738;9.226;2023-08-08T01:13:16;11.40;99.90
1379;DHT22;683;48.738;9.226;2023-08-08T01:15:46;11.40;99.90
1379;DHT22;683;48.738;9.226;2023-08-08T01:18:17;11.40;99.90
1379;DHT22;683;48.738;9.226;2023-08-08T01:20:46;11.50;99.90
1379;DHT22;683;48.738;9.226;2023-08-08T01:23:18;11.50;99.90
1379;DHT22;683;48.738;9.226;2023-08-08T01:25:48;11.50;99.90
1379;DHT22;683;48.738;9.226;2023-08-08T01:28:16;11.50;99.90
1379;DHT22;683;48.738;9.226;2023-08-08T01:30:47;11.50;99.90
1379;DHT22;683;48.738;9.226;2023-08-08T01:33:14;11.60;99.90
1379;DHT22;683;48.738;9.226;2023-08-08T01:35:45;11.60;99.90
1379;DHT22;683;48.738;9.226;2023-08-08T01:38:19;11.60;99.90
1379;DHT22;683;48.738;9.226;2023-08-08T01:40:49;11.60;99.90
1379;DHT22;683;48.738;9.226;2023-08-08T01:43:17;11.60;99.90
1379;DHT22;683;48.738;9.226;2023-08-08T01:45:45;11.60;99.90
1379;DHT22;683;48.738;9.226;2023-08-08T01:48:12;11.60;99.90
1379;DHT22;683;48.738;9.226;2023-08-08T01:50:39;11.60;99.90
1379;DHT22;683;48.738;9.226;2023-08-08T01:53:06;11.60;99.90
1379;DHT22;683;48.738;9.226;2023-08-08T01:55:33;11.70;99.90
1379;DHT22;683;48.738;9.226;2023-08-08T01:58:02;11.70;99.90
1379;DHT22;683;48.738;9.226;2023-08-08T02:00:29;11.70;99.90
1379;DHT22;683;48.738;9.226;2023-08-08T02:02:56;11.70;99.90
1379;DHT22;683;48.738;9.226;2023-08-08T02:05:24;11.70;99.90
1379;DHT22;683;48.738;9.226;2023-08-08T02:07:51;11.70;99.90
1379;DHT22;683;48.738;9.226;2023-08-08T02:10:18;11.70;99.90
1379;DHT22;683;48.738;9.226;2023-08-08T02:12:46;11.70;99.90
1379;DHT22;683;48.738;9.226;2023-08-08T02:15:14;11.70;99.90
1379;DHT22;683;48.738;9.226;2023-08-08T02:17:41;11.70;99.90
1379;DHT22;683;48.738;9.226;2023-08-08T02:20:11;11.70;99.90
1379;DHT22;683;48.738;9.226;2023-08-08T02:22:38;11.70;99.90
1379;DHT22;683;48.738;9.226;2023-08-08T02:25:05;11.70;99.90
1379;DHT22;683;48.738;9.226;2023-08-08T02:27:33;11.70;99.90
1379;DHT22;683;48.738;9.226;2023-08-08T02:30:00;11.60;99.90
1379;DHT22;683;48.738;9.226;2023-08-08T02:32:31;11.50;99.90
1379;DHT22;683;48.738;9.226;2023-08-08T02:34:58;11.50;99.90
1379;DHT22;683;48.738;9.226;2023-08-08T02:37:25;11.40;99.90
1379;DHT22;683;48.738;9.226;2023-08-08T02:39:52;11.40;99.90
1379;DHT22;683;48.738;9.226;2023-08-08T02:42:20;11.30;99.90
1379;DHT22;683;48.738;9.226;2023-08-08T02:44:47;11.20;99.90
1379;DHT22;683;48.738;9.226;2023-08-08T02:47:15;11.20;99.90
1379;DHT22;683;48.738;9.226;2023-08-08T02:49:43;11.10;99.90
1379;DHT22;683;48.738;9.226;2023-08-08T02:52:11;11.10;99.90
1379;DHT22;683;48.738;9.226;2023-08-08T02:54:38;11.10;99.90
1379;DHT22;683;48.738;9.226;2023-08-08T02:57:05;11.10;99.90
1379;DHT22;683;48.738;9.226;2023-08-08T02:59:32;11.10;99.90
1379;DHT22;683;48.738;9.226;2023-08-08T03:02:04;11.10;99.90
1379;DHT22;683;48.738;9.226;2023-08-08T03:04:33;11.10;99.90
1379;DHT22;683;48.738;9.226;2023-08-08T03:07:04;11.10;99.90
1379;DHT22;683;48.738;9.226;2023-08-08T03:09:34;11.00;99.90
1379;DHT22;683;48.738;9.226;2023-08-08T03:12:01;11.00;99.90
1379;DHT22;683;48.738;9.226;2023-08-08T03:14:31;10.90;99.90
1379;DHT22;683;48.738;9.226;2023-08-08T03:17:00;10.80;99.90
1379;DHT22;683;48.738;9.226;2023-08-08T03:19:27;10.80;99.90
1379;DHT22;683;48.738;9.226;2023-08-08T03:21:54;10.70;99.90
1379;DHT22;683;48.738;9.226;2023-08-08T03:24:23;10.60;99.90
1379;DHT22;683;48.738;9.226;2023-08-08T03:26:50;10.60;99.90
1379;DHT22;683;48.738;9.226;2023-08-08T03:29:17;10.50;99.90
1379;DHT22;683;48.738;9.226;2023-08-08T03:31:47;10.50;99.90
1379;DHT22;683;48.738;9.226;2023-08-08T03:34:15;10.50;99.90
1379;DHT22;683;48.738;9.226;2023-08-08T03:36:43;10.40;99.90
1379;DHT22;683;48.738;9.226;2023-08-08T03:39:10;10.50;99.90
1379;DHT22;683;48.738;9.226;2023-08-08T03:41:39;10.50;99.90
1379;DHT22;683;48.738;9.226;2023-08-08T03:44:06;10.50;99.90
1379;DHT22;683;48.738;9.226;2023-08-08T03:46:34;10.60;99.90
1379;DHT22;683;48.738;9.226;2023-08-08T03:49:01;10.70;99.90
1379;DHT22;683;48.738;9.226;2023-08-08T03:51:28;10.80;99.90
1379;DHT22;683;48.738;9.226;2023-08-08T03:53:56;11.00;99.90
1379;DHT22;683;48.738;9.226;2023-08-08T03:56:24;11.10;99.90
1379;DHT22;683;48.738;9.226;2023-08-08T03:58:54;11.20;99.90
1379;DHT22;683;48.738;9.226;2023-08-08T04:01:23;11.30;99.90
1379;DHT22;683;48.738;9.226;2023-08-08T04:03:50;11.40;99.90
1379;DHT22;683;48.738;9.226;2023-08-08T04:06:17;11.50;99.90
1379;DHT22;683;48.738;9.226;2023-08-08T04:08:44;11.50;99.90
1379;DHT22;683;48.738;9.226;2023-08-08T04:11:12;11.60;99.90
1379;DHT22;683;48.738;9.226;2023-08-08T04:13:39;11.70;99.90
1379;DHT22;683;48.738;9.226;2023-08-08T04:16:08;11.80;99.90
1379;DHT22;683;48.738;9.226;2023-08-08T04:18:35;11.80;99.90
1379;DHT22;683;48.738;9.226;2023-08-08T04:21:02;11.90;99.90
1379;DHT22;683;48.738;9.226;2023-08-08T04:23:29;12.00;99.90
1379;DHT22;683;48.738;9.226;2023-08-08T04:25:56;12.00;99.90
1379;DHT22;683;48.738;9.226;2023-08-08T04:28:24;12.00;99.90
1379;DHT22;683;48.738;9.226;2023-08-08T04:30:51;12.00;99.90
1379;DHT22;683;48.738;9.226;2023-08-08T04:33:19;12.00;99.90
1379;DHT22;683;48.738;9.226;2023-08-08T04:35:46;12.00;99.90
1379;DHT22;683;48.738;9.226;2023-08-08T04:38:14;12.10;99.90
1379;DHT22;683;48.738;9.226;2023-08-08T04:40:41;12.10;99.90
1379;DHT22;683;48.738;9.226;2023-08-08T04:43:08;12.10;99.90
1379;DHT22;683;48.738;9.226;2023-08-08T04:45:36;12.10;99.90
1379;DHT22;683;48.738;9.226;2023-08-08T04:48:03;12.10;99.90
1379;DHT22;683;48.738;9.226;2023-08-08T04:50:32;12.10;99.90
1379;DHT22;683;48.738;9.226;2023-08-08T04:52:59;12.10;99.90
1379;DHT22;683;48.738;9.226;2023-08-08T04:55:29;12.10;99.90
1379;DHT22;683;48.738;9.226;2023-08-08T04:57:56;12.10;99.90
1379;DHT22;683;48.738;9.226;2023-08-08T05:00:26;12.00;99.90
1379;DHT22;683;48.738;9.226;2023-08-08T05:02:53;12.00;99.90
1379;DHT22;683;48.738;9.226;2023-08-08T05:05:20;12.00;99.90
1379;DHT22;683;48.738;9.226;2023-08-08T05:07:49;11.90;99.90
1379;DHT22;683;48.738;9.226;2023-08-08T05:10:16;12.00;99.90
1379;DHT22;683;48.738;9.226;2023-08-08T05:12:43;11.90;99.90
1379;DHT22;683;48.738;9.226;2023-08-08T05:15:10;12.00;99.90
1379;DHT22;683;48.738;9.226;2023-08-08T05:17:37;12.10;99.90
1379;DHT22;683;48.738;9.226;2023-08-08T05:20:06;12.20;99.90
1379;DHT22;683;48.738;9.226;2023-08-08T05:22:34;12.30;99.90
1379;DHT22;683;48.738;9.226;2023-08-08T05:25:05;12.40;99.90
1379;DHT22;683;48.738;9.226;2023-08-08T05:27:32;12.40;99.90
1379;DHT22;683;48.738;9.226;2023-08-08T05:30:00;12.50;99.90
1379;DHT22;683;48.738;9.226;2023-08-08T05:32:27;12.60;99.90
1379;DHT22;683;48.738;9.226;2023-08-08T05:34:55;12.60;99.90
1379;DHT22;683;48.738;9.226;2023-08-08T05:37:23;12.70;99.90
1379;DHT22;683;48.738;9.226;2023-08-08T05:39:50;12.70;99.90
1379;DHT22;683;48.738;9.226;2023-08-08T05:42:19;12.70;99.90
1379;DHT22;683;48.738;9.226;2023-08-08T05:44:46;12.70;99.90
1379;DHT22;683;48.738;9.226;2023-08-08T05:47:14;12.80;99.90
1379;DHT22;683;48.738;9.226;2023-08-08T05:49:41;12.90;99.90
1379;DHT22;683;48.738;9.226;2023-08-08T05:52:09;12.90;99.90
1379;DHT22;683;48.738;9.226;2023-08-08T05:54:36;12.90;99.90
1379;DHT22;683;48.738;9.226;2023-08-08T05:57:03;13.00;99.90
1379;DHT22;683;48.738;9.226;2023-08-08T05:59:32;13.10;99.90
1379;DHT22;683;48.738;9.226;2023-08-08T06:01:59;13.20;99.90
1379;DHT22;683;48.738;9.226;2023-08-08T06:04:26;13.40;99.90
1379;DHT22;683;48.738;9.226;2023-08-08T06:06:53;13.50;99.90
1379;DHT22;683;48.738;9.226;2023-08-08T06:09:21;13.70;99.90
1379;DHT22;683;48.738;9.226;2023-08-08T06:11:48;13.80;99.90
1379;DHT22;683;48.738;9.226;2023-08-08T06:14:15;13.90;99.90
1379;DHT22;683;48.738;9.226;2023-08-08T06:16:44;14.10;99.90
1379;DHT22;683;48.738;9.226;2023-08-08T06:19:12;14.20;99.90
1379;DHT22;683;48.738;9.226;2023-08-08T06:21:40;14.30;99.90
1379;DHT22;683;48.738;9.226;2023-08-08T06:24:07;14.50;99.90
1379;DHT22;683;48.738;9.226;2023-08-08T06:26:35;14.60;99.90
1379;DHT22;683;48.738;9.226;2023-08-08T06:29:02;14.70;99.90
1379;DHT22;683;48.738;9.226;2023-08-08T06:31:29;14.90;99.90
1379;DHT22;683;48.738;9.226;2023-08-08T06:34:00;15.00;99.90
1379;DHT22;683;48.738;9.226;2023-08-08T06:36:27;15.10;99.90
1379;DHT22;683;48.738;9.226;2023-08-08T06:38:54;15.30;99.90
1379;DHT22;683;48.738;9.226;2023-08-08T06:41:30;15.40;99.90
1379;DHT22;683;48.738;9.226;2023-08-08T06:43:58;15.50;99.90
1379;DHT22;683;48.738;9.226;2023-08-08T06:46:30;15.50;99.90
1379;DHT22;683;48.738;9.226;2023-08-08T06:48:59;15.60;99.90
1379;DHT22;683;48.738;9.226;2023-08-08T06:51:27;15.50;99.90
1379;DHT22;683;48.738;9.226;2023-08-08T06:53:54;15.50;99.90
1379;DHT22;683;48.738;9.226;2023-08-08T06:56:21;15.60;99.90
1379;DHT22;683;48.738;9.226;2023-08-08T06:58:51;15.80;99.90
1379;DHT22;683;48.738;9.226;2023-08-08T07:01:19;15.90;99.90
1379;DHT22;683;48.738;9.226;2023-08-08T07:03:46;16.00;99.90
1379;DHT22;683;48.738;9.226;2023-08-08T07:06:16;16.10;99.90
1379;DHT22;683;48.738;9.226;2023-08-08T07:08:43;16.30;99.90
1379;DHT22;683;48.738;9.226;2023-08-08T07:11:10;16.50;99.90
1379;DHT22;683;48.738;9.226;2023-08-08T07:13:38;16.70;99.90
1379;DHT22;683;48.738;9.226;2023-08-08T07:16:05;16.90;99.00
1379;DHT22;683;48.738;9.226;2023-08-08T07:18:32;16.90;97.90
1379;DHT22;683;48.738;9.226;2023-08-08T07:20:59;16.90;97.50
1379;DHT22;683;48.738;9.226;2023-08-08T07:23:28;17.00;97.50
1379;DHT22;683;48.738;9.226;2023-08-08T07:25:56;17.10;97.40
1379;DHT22;683;48.738;9.226;2023-08-08T07:28:23;17.20;97.20
1379;DHT22;683;48.738;9.226;2023-08-08T07:30:50;17.30;97.00
1379;DHT22;683;48.738;9.226;2023-08-08T07:33:17;17.40;96.40
1379;DHT22;683;48.738;9.226;2023-08-08T07:35:44;17.50;95.80
1379;DHT22;683;48.738;9.226;2023-08-08T07:38:11;17.50;95.50
1379;DHT22;683;48.738;9.226;2023-08-08T07:40:40;17.60;95.20
1379;DHT22;683;48.738;9.226;2023-08-08T07:43:07;17.70;94.80
1379;DHT22;683;48.738;9.226;2023-08-08T07:45:34;17.80;93.30
1379;DHT22;683;48.738;9.226;2023-08-08T07:48:03;18.00;92.90
1379;DHT22;683;48.738;9.226;2023-08-08T07:50:31;18.20;92.40
1379;DHT22;683;48.738;9.226;2023-08-08T07:52:58;18.50;91.70
1379;DHT22;683;48.738;9.226;2023-08-08T07:55:25;18.90;91.20
1379;DHT22;683;48.738;9.226;2023-08-08T07:57:54;19.20;88.50
1379;DHT22;683;48.738;9.226;2023-08-08T08:00:21;19.40;86.50
1379;DHT22;683;48.738;9.226;2023-08-08T08:02:49;19.50;85.20
1379;DHT22;683;48.738;9.226;2023-08-08T08:05:17;19.70;84.60
1379;DHT22;683;48.738;9.226;2023-08-08T08:07:44;19.80;82.60
1379;DHT22;683;48.738;9.226;2023-08-08T08:10:12;19.80;80.80
1379;DHT22;683;48.738;9.226;2023-08-08T08:12:42;19.70;80.50
1379;DHT22;683;48.738;9.226;2023-08-08T08:15:11;19.70;79.90
1379;DHT22;683;48.738;9.226;2023-08-08T08:17:38;19.80;79.60
1379;DHT22;683;48.738;9.226;2023-08-08T08:20:06;20.00;78.50
1379;DHT22;683;48.738;9.226;2023-08-08T08:22:36;20.30;77.70
1379;DHT22;683;48.738;9.226;2023-08-08T08:25:06;20.40;76.40
1379;DHT22;683;48.738;9.226;2023-08-08T08:27:35;20.50;75.00
1379;DHT22;683;48.738;9.226;2023-08-08T08:30:03;20.50;74.10
1379;DHT22;683;48.738;9.226;2023-08-08T08:32:34;20.60;74.10
1379;DHT22;683;48.738;9.226;2023-08-08T08:35:02;20.60;73.60
1379;DHT22;683;48.738;9.226;2023-08-08T08:37:32;20.70;73.20
1379;DHT22;683;48.738;9.226;2023-08-08T08:39:59;20.70;72.50
1379;DHT22;683;48.738;9.226;2023-08-08T08:42:28;20.70;70.70
1379;DHT22;683;48.738;9.226;2023-08-08T08:44:57;20.50;71.10
1379;DHT22;683;48.738;9.226;2023-08-08T08:47:25;20.50;71.90
1379;DHT22;683;48.738;9.226;2023-08-08T08:49:57;20.60;72.20
1379;DHT22;683;48.738;9.226;2023-08-08T08:52:27;20.80;71.00
1379;DHT22;683;48.738;9.226;2023-08-08T08:54:54;20.80;70.90
1379;DHT22;683;48.738;9.226;2023-08-08T08:57:22;20.60;70.90
1379;DHT22;683;48.738;9.226;2023-08-08T08:59:51;20.50;71.60
1379;DHT22;683;48.738;9.226;2023-08-08T09:02:18;20.50;72.60
1379;DHT22;683;48.738;9.226;2023-08-08T09:04:46;20.60;72.60
1379;DHT22;683;48.738;9.226;2023-08-08T09:07:17;20.70;72.40
1379;DHT22;683;48.738;9.226;2023-08-08T09:09:48;20.80;72.20
1379;DHT22;683;48.738;9.226;2023-08-08T09:12:16;20.90;71.60
1379;DHT22;683;48.738;9.226;2023-08-08T09:14:43;21.00;72.00
1379;DHT22;683;48.738;9.226;2023-08-08T09:17:15;21.40;71.60
1379;DHT22;683;48.738;9.226;2023-08-08T09:19:43;21.60;69.80
1379;DHT22;683;48.738;9.226;2023-08-08T09:22:12;21.70;68.30
1379;DHT22;683;48.738;9.226;2023-08-08T09:24:43;21.80;68.40
1379;DHT22;683;48.738;9.226;2023-08-08T09:27:12;21.90;68.90
1379;DHT22;683;48.738;9.226;2023-08-08T09:29:43;22.20;68.90
1379;DHT22;683;48.738;9.226;2023-08-08T09:32:10;22.30;64.60
1379;DHT22;683;48.738;9.226;2023-08-08T09:34:41;22.40;64.20
1379;DHT22;683;48.738;9.226;2023-08-08T09:37:08;22.50;63.50
1379;DHT22;683;48.738;9.226;2023-08-08T09:39:36;22.60;64.30
1379;DHT22;683;48.738;9.226;2023-08-08T09:42:05;22.50;63.50
1379;DHT22;683;48.738;9.226;2023-08-08T09:44:35;22.40;64.40
1379;DHT22;683;48.738;9.226;2023-08-08T09:47:04;22.40;65.50
1379;DHT22;683;48.738;9.226;2023-08-08T09:49:31;22.40;64.40
1379;DHT22;683;48.738;9.226;2023-08-08T09:52:00;22.30;64.70
1379;DHT22;683;48.738;9.226;2023-08-08T09:54:32;22.30;63.90
1379;DHT22;683;48.738;9.226;2023-08-08T09:57:01;22.20;62.70
1379;DHT22;683;48.738;9.226;2023-08-08T09:59:31;22.20;62.10
1379;DHT22;683;48.738;9.226;2023-08-08T10:01:59;22.30;62.60
1379;DHT22;683;48.738;9.226;2023-08-08T10:04:26;22.40;62.00
1379;DHT22;683;48.738;9.226;2023-08-08T10:06:54;22.40;62.70
1379;DHT22;683;48.738;9.226;2023-08-08T10:09:21;22.50;63.30
1379;DHT22;683;48.738;9.226;2023-08-08T10:11:48;22.50;62.40
1379;DHT22;683;48.738;9.226;2023-08-08T10:14:19;22.50;61.80
1379;DHT22;683;48.738;9.226;2023-08-08T10:16:47;22.40;60.10
1379;DHT22;683;48.738;9.226;2023-08-08T10:19:21;22.30;60.50
1379;DHT22;683;48.738;9.226;2023-08-08T10:21:56;22.20;60.70
1379;DHT22;683;48.738;9.226;2023-08-08T10:24:23;22.20;61.10
1379;DHT22;683;48.738;9.226;2023-08-08T10:26:54;22.40;61.10
1379;DHT22;683;48.738;9.226;2023-08-08T10:29:25;22.50;58.20
1379;DHT22;683;48.738;9.226;2023-08-08T10:31:59;22.50;57.80
1379;DHT22;683;48.738;9.226;2023-08-08T10:34:35;22.30;59.20
1379;DHT22;683;48.738;9.226;2023-08-08T10:37:04;22.10;59.20
1379;DHT22;683;48.738;9.226;2023-08-08T10:39:31;22.00;59.60
1379;DHT22;683;48.738;9.226;2023-08-08T10:42:03;21.90;60.20
1379;DHT22;683;48.738;9.226;2023-08-08T10:44:30;21.80;60.30
1379;DHT22;683;48.738;9.226;2023-08-08T10:47:00;21.70;60.60
1379;DHT22;683;48.738;9.226;2023-08-08T10:49:27;21.60;61.20
1379;DHT22;683;48.738;9.226;2023-08-08T10:51:54;21.70;60.20
1379;DHT22;683;48.738;9.226;2023-08-08T10:54:31;21.90;60.10
1379;DHT22;683;48.738;9.226;2023-08-08T10:57:00;22.30;59.40
1379;DHT22;683;48.738;9.226;2023-08-08T10:59:35;22.50;57.60
1379;DHT22;683;48.738;9.226;2023-08-08T11:02:09;22.30;56.90
1379;DHT22;683;48.738;9.226;2023-08-08T11:04:41;22.30;57.10
1379;DHT22;683;48.738;9.226;2023-08-08T11:07:09;22.30;56.80
1379;DHT22;683;48.738;9.226;2023-08-08T11:09:36;22.30;56.40
1379;DHT22;683;48.738;9.226;2023-08-08T11:12:04;22.50;55.60
1379;DHT22;683;48.738;9.226;2023-08-08T11:14:33;23.00;55.80
1379;DHT22;683;48.738;9.226;2023-08-08T11:17:00;23.30;56.10
1379;DHT22;683;48.738;9.226;2023-08-08T11:19:28;23.40;53.60
1379;DHT22;683;48.738;9.226;2023-08-08T11:21:56;23.40;53.00
1379;DHT22;683;48.738;9.226;2023-08-08T11:24:23;23.60;53.30
1379;DHT22;683;48.738;9.226;2023-08-08T11:26:58;23.80;53.00
1379;DHT22;683;48.738;9.226;2023-08-08T11:29:25;23.90;52.60
1379;DHT22;683;48.738;9.226;2023-08-08T11:31:56;23.70;52.60
1379;DHT22;683;48.738;9.226;2023-08-08T11:34:23;23.40;52.90
1379;DHT22;683;48.738;9.226;2023-08-08T11:36:53;23.30;52.20
1379;DHT22;683;48.738;9.226;2023-08-08T11:39:21;23.50;52.00
1379;DHT22;683;48.738;9.226;2023-08-08T11:41:48;23.80;49.20
1379;DHT22;683;48.738;9.226;2023-08-08T11:44:16;23.80;49.00
1379;DHT22;683;48.738;9.226;2023-08-08T11:46:44;23.90;49.90
1379;DHT22;683;48.738;9.226;2023-08-08T11:49:13;23.90;50.70
1379;DHT22;683;48.738;9.226;2023-08-08T11:51:43;23.80;50.30
1379;DHT22;683;48.738;9.226;2023-08-08T11:54:14;23.80;50.60
1379;DHT22;683;48.738;9.226;2023-08-08T11:56:43;23.70;50.30
1379;DHT22;683;48.738;9.226;2023-08-08T11:59:10;23.50;50.80
1379;DHT22;683;48.738;9.226;2023-08-08T12:01:38;23.60;52.20
1379;DHT22;683;48.738;9.226;2023-08-08T12:04:06;23.60;50.90
1379;DHT22;683;48.738;9.226;2023-08-08T12:06:36;23.40;51.20
1379;DHT22;683;48.738;9.226;2023-08-08T12:09:05;23.20;51.50
1379;DHT22;683;48.738;9.226;2023-08-08T12:11:35;23.30;51.30
1379;DHT22;683;48.738;9.226;2023-08-08T12:14:04;23.60;50.80
1379;DHT22;683;48.738;9.226;2023-08-08T12:16:31;24.10;49.40
1379;DHT22;683;48.738;9.226;2023-08-08T12:19:00;24.70;49.10
1379;DHT22;683;48.738;9.226;2023-08-08T12:21:31;25.20;48.20
1379;DHT22;683;48.738;9.226;2023-08-08T12:23:59;25.60;48.00
1379;DHT22;683;48.738;9.226;2023-08-08T12:26:26;26.10;46.40
1379;DHT22;683;48.738;9.226;2023-08-08T12:28:55;27.10;46.00
1379;DHT22;683;48.738;9.226;2023-08-08T12:31:22;27.80;43.90
1379;DHT22;683;48.738;9.226;2023-08-08T12:33:51;27.60;43.30
1379;DHT22;683;48.738;9.226;2023-08-08T12:36:18;27.30;44.20
1379;DHT22;683;48.738;9.226;2023-08-08T12:38:45;27.10;45.10
1379;DHT22;683;48.738;9.226;2023-08-08T12:41:13;27.70;44.60
1379;DHT22;683;48.738;9.226;2023-08-08T12:43:40;27.50;43.50
1379;DHT22;683;48.738;9.226;2023-08-08T12:46:09;27.30;43.90
1379;DHT22;683;48.738;9.226;2023-08-08T12:48:36;27.50;44.20
1379;DHT22;683;48.738;9.226;2023-08-08T12:51:03;27.40;43.30
1379;DHT22;683;48.738;9.226;2023-08-08T12:53:30;27.20;44.30
1379;DHT22;683;48.738;9.226;2023-08-08T12:55:57;27.00;45.10
1379;DHT22;683;48.738;9.226;2023-08-08T12:58:25;27.30;45.30
1379;DHT22;683;48.738;9.226;2023-08-08T13:00:52;27.90;44.90
1379;DHT22;683;48.738;9.226;2023-08-08T13:03:20;28.90;44.30
1379;DHT22;683;48.738;9.226;2023-08-08T13:05:47;28.60;42.90
1379;DHT22;683;48.738;9.226;2023-08-08T13:08:18;28.90;43.10
1379;DHT22;683;48.738;9.226;2023-08-08T13:10:45;28.60;42.70
1379;DHT22;683;48.738;9.226;2023-08-08T13:13:12;28.70;43.00
1379;DHT22;683;48.738;9.226;2023-08-08T13:15:39;28.10;42.50
1379;DHT22;683;48.738;9.226;2023-08-08T13:18:07;27.10;44.50
1379;DHT22;683;48.738;9.226;2023-08-08T13:20:36;26.10;45.30
1379;DHT22;683;48.738;9.226;2023-08-08T13:23:04;25.20;46.30
1379;DHT22;683;48.738;9.226;2023-08-08T13:25:32;24.50;48.10
1379;DHT22;683;48.738;9.226;2023-08-08T13:28:00;23.80;49.10
1379;DHT22;683;48.738;9.226;2023-08-08T13:30:29;23.20;50.60
1379;DHT22;683;48.738;9.226;2023-08-08T13:32:57;22.70;51.60
1379;DHT22;683;48.738;9.226;2023-08-08T13:35:24;22.60;52.60
1379;DHT22;683;48.738;9.226;2023-08-08T13:37:53;22.90;52.80
1379;DHT22;683;48.738;9.226;2023-08-08T13:40:20;23.50;52.30
1379;DHT22;683;48.738;9.226;2023-08-08T13:42:47;24.80;51.10
1379;DHT22;683;48.738;9.226;2023-08-08T13:45:16;26.60;49.30
1379;DHT22;683;48.738;9.226;2023-08-08T13:47:43;29.10;45.50
1379;DHT22;683;48.738;9.226;2023-08-08T13:50:13;31.20;43.60
1379;DHT22;683;48.738;9.226;2023-08-08T13:52:44;33.10;38.90
1379;DHT22;683;48.738;9.226;2023-08-08T13:55:13;33.70;36.80
1379;DHT22;683;48.738;9.226;2023-08-08T13:57:41;34.90;35.10
1379;DHT22;683;48.738;9.226;2023-08-08T14:00:09;35.50;33.60
1379;DHT22;683;48.738;9.226;2023-08-08T14:02:39;35.50;33.50
1379;DHT22;683;48.738;9.226;2023-08-08T14:05:07;35.80;33.00
1379;DHT22;683;48.738;9.226;2023-08-08T14:07:34;36.30;31.90
1379;DHT22;683;48.738;9.226;2023-08-08T14:10:02;36.50;31.20
1379;DHT22;683;48.738;9.226;2023-08-08T14:12:31;36.20;31.60
1379;DHT22;683;48.738;9.226;2023-08-08T14:14:59;36.30;30.60
1379;DHT22;683;48.738;9.226;2023-08-08T14:17:26;36.70;30.50
1379;DHT22;683;48.738;9.226;2023-08-08T14:19:56;37.20;29.80
1379;DHT22;683;48.738;9.226;2023-08-08T14:22:23;36.40;30.50
1379;DHT22;683;48.738;9.226;2023-08-08T14:24:50;36.40;30.60
1379;DHT22;683;48.738;9.226;2023-08-08T14:27:17;35.90;30.00
1379;DHT22;683;48.738;9.226;2023-08-08T14:29:46;33.90;31.90
1379;DHT22;683;48.738;9.226;2023-08-08T14:32:13;31.40;35.20
1379;DHT22;683;48.738;9.226;2023-08-08T14:34:40;29.30;38.30
1379;DHT22;683;48.738;9.226;2023-08-08T14:37:08;27.60;40.90
1379;DHT22;683;48.738;9.226;2023-08-08T14:39:38;26.30;43.20
1379;DHT22;683;48.738;9.226;2023-08-08T14:42:06;25.40;45.20
1379;DHT22;683;48.738;9.226;2023-08-08T14:44:33;24.60;46.70
1379;DHT22;683;48.738;9.226;2023-08-08T14:47:04;23.90;46.70
1379;DHT22;683;48.738;9.226;2023-08-08T14:49:31;23.20;48.00
1379;DHT22;683;48.738;9.226;2023-08-08T14:51:59;22.80;48.90
1379;DHT22;683;48.738;9.226;2023-08-08T14:54:26;22.70;49.60
1379;DHT22;683;48.738;9.226;2023-08-08T14:56:53;22.70;50.10
1379;DHT22;683;48.738;9.226;2023-08-08T14:59:20;22.80;50.50
1379;DHT22;683;48.738;9.226;2023-08-08T15:01:49;23.10;50.90
1379;DHT22;683;48.738;9.226;2023-08-08T15:04:18;24.00;49.70
1379;DHT22;683;48.738;9.226;2023-08-08T15:06:45;24.50;49.10
1379;DHT22;683;48.738;9.226;2023-08-08T15:09:12;24.70;48.50
1379;DHT22;683;48.738;9.226;2023-08-08T15:11:40;24.70;48.60
1379;DHT22;683;48.738;9.226;2023-08-08T15:14:07;24.60;48.90
1379;DHT22;683;48.738;9.226;2023-08-08T15:16:34;24.40;49.10
1379;DHT22;683;48.738;9.226;2023-08-08T15:19:01;23.90;49.70
1379;DHT22;683;48.738;9.226;2023-08-08T15:21:30;23.50;49.80
1379;DHT22;683;48.738;9.226;2023-08-08T15:23:58;23.00;50.30
1379;DHT22;683;48.738;9.226;2023-08-08T15:26:25;22.70;51.40
1379;DHT22;683;48.738;9.226;2023-08-08T15:28:52;22.50;52.30
1379;DHT22;683;48.738;9.226;2023-08-08T15:31:20;22.60;52.40
1379;DHT22;683;48.738;9.226;2023-08-08T15:33:47;23.00;52.50
1379;DHT22;683;48.738;9.226;2023-08-08T15:36:14;23.50;51.80
1379;DHT22;683;48.738;9.226;2023-08-08T15:38:43;24.80;50.30
1379;DHT22;683;48.738;9.226;2023-08-08T15:41:10;27.00;46.60
1379;DHT22;683;48.738;9.226;2023-08-08T15:43:37;27.90;44.10
1379;DHT22;683;48.738;9.226;2023-08-08T15:46:04;27.20;44.30
1379;DHT22;683;48.738;9.226;2023-08-08T15:48:31;26.20;46.20
1379;DHT22;683;48.738;9.226;2023-08-08T15:50:59;25.10;47.80
1379;DHT22;683;48.738;9.226;2023-08-08T15:53:26;24.10;49.50
1379;DHT22;683;48.738;9.226;2023-08-08T15:55:56;23.30;50.90
1379;DHT22;683;48.738;9.226;2023-08-08T15:58:23;22.70;52.10
1379;DHT22;683;48.738;9.226;2023-08-08T16:00:50;22.20;53.10
1379;DHT22;683;48.738;9.226;2023-08-08T16:03:18;21.90;54.10
1379;DHT22;683;48.738;9.226;2023-08-08T16:05:45;21.80;55.00
1379;DHT22;683;48.738;9.226;2023-08-08T16:08:13;21.80;54.30
1379;DHT22;683;48.738;9.226;2023-08-08T16:10:40;21.60;54.70
1379;DHT22;683;48.738;9.226;2023-08-08T16:13:09;21.60;55.10
1379;DHT22;683;48.738;9.226;2023-08-08T16:15:36;21.50;55.40
1379;DHT22;683;48.738;9.226;2023-08-08T16:18:03;21.50;55.70
1379;DHT22;683;48.738;9.226;2023-08-08T16:20:31;22.10;55.50
1379;DHT22;683;48.738;9.226;2023-08-08T16:22:58;24.00;53.30